sensor_id;sensor_type;location;lat;lon;timestamp;P1;durP1;ratioP1;P2;durP2;ratioP2
17866;SDS011;9059;49.934;8.650;2024-01-30T00:00:54;12.43;;;4.90;;
17866;SDS011;9059;49.934;8.650;2024-01-30T00:10:57;10.70;;;4.00;;
17866;SDS011;9059;49.934;8.650;2024-01-30T00:21:02;11.37;;;4.00;;
17866;SDS011;9059;49.934;8.650;2024-01-30T00:31:05;10.63;;;3.87;;
17866;SDS011;9059;49.934;8.650;2024-01-30T00:41:09;8.27;;;3.40;;
17866;SDS011;9059;49.934;8.650;2024-01-30T00:51:12;9.10;;;3.57;;
17866;SDS011;9059;49.934;8.650;2024-01-30T01:01:16;7.73;;;3.70;;
17866;SDS011;9059;49.934;8.650;2024-01-30T01:11:19;6.00;;;3.20;;
17866;SDS011;9059;49.934;8.650;2024-01-30T01:21:23;9.80;;;3.37;;
17866;SDS011;9059;49.934;8.650;2024-01-30T01:31:26;12.27;;;4.00;;
17866;SDS011;9059;49.934;8.650;2024-01-30T01:41:32;6.90;;;3.40;;
17866;SDS011;9059;49.934;8.650;2024-01-30T01:51:35;7.97;;;3.27;;
17866;SDS011;9059;49.934;8.650;2024-01-30T02:01:40;9.53;;;3.13;;
17866;SDS011;9059;49.934;8.650;2024-01-30T02:11:44;11.50;;;4.53;;
17866;SDS011;9059;49.934;8.650;2024-01-30T02:21:48;10.93;;;4.80;;
17866;SDS011;9059;49.934;8.650;2024-01-30T02:31:52;7.80;;;3.23;;
17866;SDS011;9059;49.934;8.650;2024-01-30T02:41:56;11.37;;;3.10;;
17866;SDS011;9059;49.934;8.650;2024-01-30T02:51:59;12.27;;;3.40;;
17866;SDS011;9059;49.934;8.650;2024-01-30T03:02:03;10.47;;;3.23;;
17866;SDS011;9059;49.934;8.650;2024-01-30T03:12:07;7.33;;;3.27;;
17866;SDS011;9059;49.934;8.650;2024-01-30T03:22:13;8.57;;;3.50;;
17866;SDS011;9059;49.934;8.650;2024-01-30T03:32:16;6.87;;;3.43;;
17866;SDS011;9059;49.934;8.650;2024-01-30T03:42:20;7.70;;;3.63;;
17866;SDS011;9059;49.934;8.650;2024-01-30T03:52:23;10.53;;;3.43;;
17866;SDS011;9059;49.934;8.650;2024-01-30T04:02:28;7.37;;;3.40;;
17866;SDS011;9059;49.934;8.650;2024-01-30T04:12:30;6.43;;;3.10;;
17866;SDS011;9059;49.934;8.650;2024-01-30T04:22:35;11.73;;;5.03;;
17866;SDS011;9059;49.934;8.650;2024-01-30T04:32:37;8.87;;;3.20;;
17866;SDS011;9059;49.934;8.650;2024-01-30T04:42:42;7.27;;;2.90;;
17866;SDS011;9059;49.934;8.650;2024-01-30T04:52:44;6.37;;;3.20;;
17866;SDS011;9059;49.934;8.650;2024-01-30T05:02:49;7.43;;;3.30;;
17866;SDS011;9059;49.934;8.650;2024-01-30T05:12:51;8.33;;;3.37;;
17866;SDS011;9059;49.934;8.650;2024-01-30T05:22:56;10.60;;;3.33;;
17866;SDS011;9059;49.934;8.650;2024-01-30T05:32:59;5.97;;;2.90;;
17866;SDS011;9059;49.934;8.650;2024-01-30T05:43:04;8.97;;;3.10;;
17866;SDS011;9059;49.934;8.650;2024-01-30T05:53:06;11.03;;;4.57;;
17866;SDS011;9059;49.934;8.650;2024-01-30T06:03:11;13.07;;;4.93;;
17866;SDS011;9059;49.934;8.650;2024-01-30T06:13:13;17.47;;;7.87;;
17866;SDS011;9059;49.934;8.650;2024-01-30T06:23:18;13.43;;;4.93;;
17866;SDS011;9059;49.934;8.650;2024-01-30T06:33:21;10.30;;;5.03;;
17866;SDS011;9059;49.934;8.650;2024-01-30T06:43:25;11.47;;;4.43;;
17866;SDS011;9059;49.934;8.650;2024-01-30T06:53:28;11.47;;;5.50;;
17866;SDS011;9059;49.934;8.650;2024-01-30T07:03:33;8.53;;;3.87;;
17866;SDS011;9059;49.934;8.650;2024-01-30T07:13:36;8.00;;;3.63;;
17866;SDS011;9059;49.934;8.650;2024-01-30T07:23:40;11.57;;;4.17;;
17866;SDS011;9059;49.934;8.650;2024-01-30T07:33:45;9.67;;;5.03;;
17866;SDS011;9059;49.934;8.650;2024-01-30T07:43:50;8.90;;;3.47;;
17866;SDS011;9059;49.934;8.650;2024-01-30T07:53:53;9.33;;;3.80;;
17866;SDS011;9059;49.934;8.650;2024-01-30T08:03:57;11.80;;;4.40;;
17866;SDS011;9059;49.934;8.650;2024-01-30T08:14:00;10.70;;;3.67;;
17866;SDS011;9059;49.934;8.650;2024-01-30T08:24:05;12.23;;;5.23;;
17866;SDS011;9059;49.934;8.650;2024-01-30T08:34:09;8.00;;;3.60;;
17866;SDS011;9059;49.934;8.650;2024-01-30T08:44:13;12.80;;;4.40;;
17866;SDS011;9059;49.934;8.650;2024-01-30T08:54:16;13.13;;;4.10;;
17866;SDS011;9059;49.934;8.650;2024-01-30T09:04:21;11.30;;;4.37;;
17866;SDS011;9059;49.934;8.650;2024-01-30T09:14:26;8.30;;;4.00;;
17866;SDS011;9059;49.934;8.650;2024-01-30T09:24:31;13.37;;;4.70;;
17866;SDS011;9059;49.934;8.650;2024-01-30T09:34:33;11.30;;;4.50;;
17866;SDS011;9059;49.934;8.650;2024-01-30T09:44:38;10.17;;;5.23;;
17866;SDS011;9059;49.934;8.650;2024-01-30T09:54:46;13.60;;;5.20;;
17866;SDS011;9059;49.934;8.650;2024-01-30T10:04:52;10.63;;;5.83;;
17866;SDS011;9059;49.934;8.650;2024-01-30T10:14:56;17.27;;;7.17;;
17866;SDS011;9059;49.934;8.650;2024-01-30T10:25:00;12.67;;;6.03;;
17866;SDS011;9059;49.934;8.650;2024-01-30T10:35:07;14.67;;;5.80;;
17866;SDS011;9059;49.934;8.650;2024-01-30T10:45:12;13.60;;;5.80;;
17866;SDS011;9059;49.934;8.650;2024-01-30T10:55:17;16.87;;;6.47;;
17866;SDS011;9059;49.934;8.650;2024-01-30T11:05:24;13.50;;;6.50;;
17866;SDS011;9059;49.934;8.650;2024-01-30T11:15:37;16.23;;;6.47;;
17866;SDS011;9059;49.934;8.650;2024-01-30T11:25:43;13.27;;;5.70;;
17866;SDS011;9059;49.934;8.650;2024-01-30T11:35:46;12.68;;;6.45;;
17866;SDS011;9059;49.934;8.650;2024-01-30T11:45:50;16.27;;;6.32;;
17866;SDS011;9059;49.934;8.650;2024-01-30T11:55:53;14.65;;;6.50;;
17866;SDS011;9059;49.934;8.650;2024-01-30T12:05:58;18.50;;;7.80;;
17866;SDS011;9059;49.934;8.650;2024-01-30T12:16:01;12.45;;;5.75;;
17866;SDS011;9059;49.934;8.650;2024-01-30T12:26:06;15.45;;;6.75;;
17866;SDS011;9059;49.934;8.650;2024-01-30T12:36:09;14.73;;;6.45;;
17866;SDS011;9059;49.934;8.650;2024-01-30T12:46:13;17.45;;;6.20;;
17866;SDS011;9059;49.934;8.650;2024-01-30T12:56:16;11.98;;;5.80;;
17866;SDS011;9059;49.934;8.650;2024-01-30T13:06:21;15.95;;;6.35;;
17866;SDS011;9059;49.934;8.650;2024-01-30T13:16:24;12.88;;;6.28;;
17866;SDS011;9059;49.934;8.650;2024-01-30T13:26:29;13.20;;;5.75;;
17866;SDS011;9059;49.934;8.650;2024-01-30T13:36:32;11.90;;;5.20;;
17866;SDS011;9059;49.934;8.650;2024-01-30T13:46:36;9.68;;;3.72;;
17866;SDS011;9059;49.934;8.650;2024-01-30T13:56:40;10.10;;;4.25;;
17866;SDS011;9059;49.934;8.650;2024-01-30T14:06:44;9.77;;;3.95;;
17866;SDS011;9059;49.934;8.650;2024-01-30T14:16:57;8.13;;;4.13;;
17866;SDS011;9059;49.934;8.650;2024-01-30T14:27:02;10.93;;;3.80;;
17866;SDS011;9059;49.934;8.650;2024-01-30T14:37:05;11.18;;;4.53;;
17866;SDS011;9059;49.934;8.650;2024-01-30T14:47:09;7.78;;;4.20;;
17866;SDS011;9059;49.934;8.650;2024-01-30T14:57:14;10.43;;;4.30;;
17866;SDS011;9059;49.934;8.650;2024-01-30T15:07:19;12.20;;;4.57;;
17866;SDS011;9059;49.934;8.650;2024-01-30T15:17:36;12.82;;;4.40;;
17866;SDS011;9059;49.934;8.650;2024-01-30T15:27:40;8.15;;;3.97;;
17866;SDS011;9059;49.934;8.650;2024-01-30T15:37:43;10.20;;;4.13;;
17866;SDS011;9059;49.934;8.650;2024-01-30T15:47:47;8.63;;;3.95;;
17866;SDS011;9059;49.934;8.650;2024-01-30T15:57:50;12.23;;;5.28;;
17866;SDS011;9059;49.934;8.650;2024-01-30T16:07:55;10.35;;;4.63;;
17866;SDS011;9059;49.934;8.650;2024-01-30T16:17:57;11.57;;;4.78;;
17866;SDS011;9059;49.934;8.650;2024-01-30T16:28:02;10.80;;;4.40;;
17866;SDS011;9059;49.934;8.650;2024-01-30T16:38:05;9.63;;;4.50;;
17866;SDS011;9059;49.934;8.650;2024-01-30T16:48:09;12.35;;;5.22;;
17866;SDS011;9059;49.934;8.650;2024-01-30T16:58:16;12.40;;;5.35;;
17866;SDS011;9059;49.934;8.650;2024-01-30T17:08:20;11.50;;;4.55;;
17866;SDS011;9059;49.934;8.650;2024-01-30T17:18:23;9.27;;;4.20;;
17866;SDS011;9059;49.934;8.650;2024-01-30T17:28:27;7.82;;;3.70;;
17866;SDS011;9059;49.934;8.650;2024-01-30T17:38:30;13.00;;;4.90;;
17866;SDS011;9059;49.934;8.650;2024-01-30T17:48:35;15.38;;;5.45;;
17866;SDS011;9059;49.934;8.650;2024-01-30T17:58:38;13.32;;;5.97;;
17866;SDS011;9059;49.934;8.650;2024-01-30T18:08:43;18.17;;;6.93;;
17866;SDS011;9059;49.934;8.650;2024-01-30T18:18:46;20.60;;;7.80;;
17866;SDS011;9059;49.934;8.650;2024-01-30T18:28:51;17.77;;;6.28;;
17866;SDS011;9059;49.934;8.650;2024-01-30T18:38:56;15.93;;;6.35;;
17866;SDS011;9059;49.934;8.650;2024-01-30T18:49:01;13.55;;;6.55;;
17866;SDS011;9059;49.934;8.650;2024-01-30T18:59:04;18.80;;;7.15;;
17866;SDS011;9059;49.934;8.650;2024-01-30T19:09:08;15.05;;;6.75;;
17866;SDS011;9059;49.934;8.650;2024-01-30T19:19:13;13.77;;;6.88;;
17866;SDS011;9059;49.934;8.650;2024-01-30T19:29:18;17.15;;;7.50;;
17866;SDS011;9059;49.934;8.650;2024-01-30T19:39:22;12.98;;;6.68;;
17866;SDS011;9059;49.934;8.650;2024-01-30T19:49:26;12.27;;;6.78;;
17866;SDS011;9059;49.934;8.650;2024-01-30T19:59:32;12.30;;;6.00;;
17866;SDS011;9059;49.934;8.650;2024-01-30T20:09:37;25.25;;;9.70;;
17866;SDS011;9059;49.934;8.650;2024-01-30T20:19:44;21.48;;;5.53;;
17866;SDS011;9059;49.934;8.650;2024-01-30T20:29:49;10.75;;;4.32;;
17866;SDS011;9059;49.934;8.650;2024-01-30T20:39:51;13.90;;;4.85;;
17866;SDS011;9059;49.934;8.650;2024-01-30T20:49:58;9.85;;;4.57;;
17866;SDS011;9059;49.934;8.650;2024-01-30T21:00:01;9.48;;;4.47;;
17866;SDS011;9059;49.934;8.650;2024-01-30T21:10:08;9.93;;;4.45;;
17866;SDS011;9059;49.934;8.650;2024-01-30T21:20:11;12.32;;;4.53;;
17866;SDS011;9059;49.934;8.650;2024-01-30T21:30:16;10.65;;;5.03;;
17866;SDS011;9059;49.934;8.650;2024-01-30T21:40:20;10.25;;;4.63;;
17866;SDS011;9059;49.934;8.650;2024-01-30T21:50:24;9.95;;;4.15;;
17866;SDS011;9059;49.934;8.650;2024-01-30T22:00:27;13.60;;;4.20;;
17866;SDS011;9059;49.934;8.650;2024-01-30T22:10:31;13.07;;;4.68;;
17866;SDS011;9059;49.934;8.650;2024-01-30T22:20:34;11.52;;;4.55;;
17866;SDS011;9059;49.934;8.650;2024-01-30T22:30:39;14.80;;;5.18;;
17866;SDS011;9059;49.934;8.650;2024-01-30T22:40:41;12.45;;;5.25;;
17866;SDS011;9059;49.934;8.650;2024-01-30T22:50:46;16.92;;;5.45;;
17866;SDS011;9059;49.934;8.650;2024-01-30T23:00:49;12.07;;;5.63;;
17866;SDS011;9059;49.934;8.650;2024-01-30T23:10:53;13.00;;;5.25;;
17866;SDS011;9059;49.934;8.650;2024-01-30T23:20:56;13.25;;;5.93;;
17866;SDS011;9059;49.934;8.650;2024-01-30T23:31:00;10.70;;;5.38;;
17866;SDS011;9059;49.934;8.650;2024-01-30T23:41:04;14.50;;;5.65;;
17866;SDS011;9059;49.934;8.650;2024-01-30T23:51:09;13.02;;;5.75;;
